Terminal Aerodrome Forecast
Issued by NWS Rapid City, SD

Home | Current Version | Previous Version | Graphics & Text | Print | Product List | Glossary On
Versions: 1 2 3 4 5 6 7 8 9 10 11 12 13 14
000
FTUS43 KUNR 221120
TAFRAP
TAF
KRAP 221120Z 2212/2312 VRB04KT P6SM SCT150
     FM221500 17010KT P6SM SCT150
     FM221800 17015G25KT P6SM BKN100
     FM230200 16007KT P6SM BKN100=

USA.gov is the U.S. government's official web portal to all federal, state and local government web resources and services.